Beechwood, Michigan
Current Conditions -  °F | °C
As of 3:35 AM on Saturday 25 Oct 2014 (Local Time) from KLNL Reporting Station
Clear Clear  
Wind Chill: 11°   Ceiling: Unl
Heat Index: 11°   Visibility: 10mi
Dew Point:   Wind: 7mph
Humidity: 86%   Direction: 280°W
Pressure: 29.78"   Gusts: NA
Location:  46.2163°N, 88.7676°W
Report Text: KLNL 250835Z AUTO 28006KT 10SM CLR 11/08 A2978 RMK AO2 T01060083
Loading
Personal Weather Stations






























Interactive Weather Map
Tropical Storm Tracking
New forecast layout! Learn more

10-Day Weather Forecast

Advertisements
Track Severe Weather on mobile